San Pasqual Valley (470) Station Data

Red Flag Warning: No
Fire Weather Zone: 250
SDGE Region: North East
Lat/Lon: 33.093/-116.955

Observations

Time Wind Speed/Gust Temp(F) RH Fuel Moist Fuel Temp(F) Dewpt(F) Tmax(F) Tmin(F) Accum Precip 10-min Precip SL Press(mb)
6/22 5:00am 2 2 G 3 61° 93% - - 59° 63.7° 59.6° - - -
6/22 4:50am 29 1 G 2 61° 93% - - 59° 63.7° 59.6° - - -
6/22 4:40am 354 1 G 2 61° 93% - - 59° 63.7° 59.6° - - -
6/22 4:30am 343 1 G 3 61° 93% - - 59° 63.7° 59.6° - - -
6/22 4:20am 360 1 G 2 61° 92% - - 59° 63.7° 59.6° - - -
6/22 4:10am 321 1 G 2 61° 92% - - 59° 63.7° 59.6° - - -
6/22 4:00am 276 2 G 4 61° 92% - - 59° 63.7° 59.6° - - -
6/22 3:50am 287 2 G 3 61° 92% - - 59° 63.7° 59.6° - - -
6/22 3:40am 319 2 G 4 61° 92% - - 59° 63.7° 59.6° - - -
6/22 3:30am 291 0 G 2 61° 92% - - 59° 63.7° 59.6° - - -
6/22 3:20am 355 0 G 2 61° 92% - - 59° 63.7° 59.6° - - -
6/22 3:10am 77 1 G 3 61° 92% - - 59° 63.7° 59.6° - - -
6/22 3:00am 245 1 G 2 61° 92% - - 59° 63.7° 59.6° - - -
6/22 2:50am 204 2 G 3 61° 92% - - 59° 63.7° 59.6° - - -
6/22 2:40am 203 1 G 3 61° 93% - - 59° 63.7° 59.6° - - -
6/22 2:30am 197 1 G 2 61° 93% - - 58° 63.7° 59.6° - - -
6/22 2:20am 157 0 G 1 60° 92% - - 58° 63.7° 59.6° - - -
6/22 2:10am 168 0 G 1 60° 92% - - 58° 63.7° 59.6° - - -
6/22 2:00am 236 0 G 1 60° 92% - - 58° 63.7° 59.6° - - -
6/22 1:50am 229 0 G 1 60° 92% - - 58° 63.7° 59.9° - - -
6/22 1:40am 168 1 G 3 61° 91% - - 58° 63.7° 60.3° - - -
6/22 1:30am 118 1 G 2 61° 91% - - 58° 63.7° 60.3° - - -
6/22 1:20am 169 2 G 4 61° 91% - - 58° 63.7° 60.8° - - -
6/22 1:10am 131 1 G 2 61° 90% - - 58° 63.7° 60.8° - - -
6/22 1:00am 144 1 G 2 62° 89% - - 58° 63.7° 61.1° - - -
6/22 12:50am 186 1 G 2 62° 89% - - 59° 63.7° 61.4° - - -
6/22 12:40am 171 1 G 3 62° 89% - - 59° 63.7° 61.9° - - -
6/22 12:30am 109 1 G 2 62° 88% - - 59° 63.7° 61.9° - - -
6/22 12:20am 174 1 G 3 63° 88% - - 59° 63.7° 62.1° - - -
6/22 12:10am 172 2 G 3 63° 87% - - 59° 63.7° 62.4° - - -
6/22 12:00am 142 1 G 2 63° 86% - - 59° 94° 56.9° - - -
6/21 11:50pm 105 1 G 2 64° 85% - - 59° 94° 56.9° - - -
6/21 11:40pm 169 1 G 2 64° 84% - - 59° 94° 56.9° - - -
6/21 11:30pm 187 1 G 2 65° 83% - - 59° 94° 56.9° - - -
6/21 11:20pm 163 0 G 2 65° 82% - - 59° 94° 56.9° - - -
6/21 11:10pm 163 1 G 2 65° 81% - - 59° 94° 56.9° - - -
6/21 11:00pm 153 1 G 3 66° 80% - - 59° 94° 56.9° - - -
6/21 10:50pm 156 1 G 2 66° 79% - - 59° 94° 56.9° - - -
6/21 10:40pm 145 1 G 2 67° 78% - - 60° 94° 56.9° - - -
6/21 10:30pm 165 1 G 3 67° 77% - - 60° 94° 56.9° - - -
6/21 10:20pm 210 2 G 5 68° 76% - - 60° 94° 56.9° - - -
6/21 10:10pm 205 1 G 4 68° 74% - - 60° 94° 56.9° - - -
6/21 10:00pm 200 3 G 5 69° 73% - - 60° 94° 56.9° - - -
6/21 9:50pm 183 2 G 5 70° 71% - - 60° 94° 56.9° - - -
6/21 9:40pm 192 5 G 7 70° 70% - - 60° 94° 56.9° - - -
6/21 9:30pm 191 5 G 7 71° 69% - - 60° 94° 56.9° - - -
6/21 9:20pm 193 5 G 7 71° 68% - - 60° 94° 56.9° - - -
6/21 9:10pm 199 3 G 6 72° 67% - - 60° 94° 56.9° - - -
6/21 9:00pm 201 4 G 7 73° 65% - - 60° 94° 56.9° - - -
6/21 8:50pm 198 5 G 7 73° 65% - - 60° 94° 56.9° - - -
6/21 8:40pm 197 5 G 7 73° 64% - - 60° 94° 56.9° - - -
6/21 8:30pm 190 5 G 7 74° 63% - - 60° 94° 56.9° - - -
6/21 8:20pm 190 5 G 8 75° 61% - - 60° 94° 56.9° - - -
6/21 8:10pm 214 4 G 7 76° 60% - - 61° 94° 56.9° - - -
6/21 8:00pm 213 4 G 8 77° 58% - - 61° 94° 56.9° - - -
6/21 7:50pm 226 5 G 9 77° 57% - - 61° 94° 56.9° - - -
6/21 7:40pm 227 6 G 10 78° 55% - - 61° 94° 56.9° - - -
6/21 7:30pm 231 6 G 10 79° 54% - - 61° 94° 56.9° - - -
6/21 7:20pm 240 6 G 11 80° 52% - - 61° 94° 56.9° - - -
6/21 7:10pm 241 6 G 9 82° 50% - - 61° 94° 56.9° - - -
6/21 7:00pm 241 6 G 10 82° 49% - - 61° 94° 56.9° - - -
6/21 6:50pm 234 5 G 9 83° 47% - - 61° 94° 56.9° - - -
6/21 6:40pm 237 6 G 10 84° 46% - - 61° 94° 56.9° - - -
6/21 6:30pm 238 6 G 11 84° 45% - - 61° 94° 56.9° - - -
6/21 6:20pm 236 6 G 10 85° 45% - - 61° 94° 56.9° - - -
6/21 6:10pm 243 5 G 9 85° 45% - - 61° 94° 56.9° - - -
6/21 6:00pm 251 6 G 10 85° 44% - - 61° 94° 56.9° - - -
6/21 5:50pm 256 7 G 11 86° 44% - - 61° 94° 56.9° - - -
6/21 5:40pm 255 7 G 15 86° 44% - - 61° 94° 56.9° - - -
6/21 5:30pm 257 8 G 12 86° 43% - - 61° 94° 56.9° - - -
6/21 5:20pm 255 8 G 12 87° 42% - - 61° 94° 56.9° - - -
6/21 5:10pm 255 8 G 11 87° 42% - - 61° 94° 56.9° - - -
6/21 5:00pm 257 8 G 12 88° 41% - - 61° 94° 56.9° - - -
6/21 4:50pm 270 8 G 12 88° 40% - - 61° 94° 56.9° - - -
6/21 4:40pm 268 8 G 13 89° 40% - - 61° 94° 56.9° - - -
6/21 4:30pm 267 8 G 12 89° 39% - - 61° 94° 56.9° - - -
6/21 4:20pm 270 7 G 11 89° 39% - - 61° 94° 56.9° - - -
6/21 4:10pm 271 8 G 13 89° 39% - - 61° 94° 56.9° - - -
6/21 4:00pm 267 8 G 13 89° 40% - - 61° 94° 56.9° - - -
6/21 3:50pm 257 8 G 13 90° 39% - - 62° 94° 56.9° - - -
6/21 3:40pm 264 8 G 13 90° 39% - - 62° 94° 56.9° - - -
6/21 3:30pm 268 10 G 16 90° 39% - - 62° 94° 56.9° - - -
6/21 3:20pm 251 9 G 15 91° 37% - - 61° 94° 56.9° - - -
6/21 3:10pm 247 8 G 14 92° 36% - - 61° 94° 56.9° - - -
6/21 3:00pm 246 8 G 13 91° 36% - - 61° 94° 56.9° - - -
6/21 2:50pm 245 9 G 14 91° 36% - - 61° 94° 56.9° - - -
6/21 2:40pm 251 9 G 16 91° 37% - - 61° 94° 56.9° - - -
6/21 2:30pm 249 9 G 14 91° 38% - - 62° 94° 56.9° - - -
6/21 2:20pm 244 9 G 14 92° 38% - - 63° 94° 56.9° - - -
6/21 2:10pm 238 10 G 15 92° 38% - - 63° 94° 56.9° - - -
6/21 2:00pm 251 8 G 14 92° 38% - - 63° 94° 56.9° - - -
6/21 1:50pm 264 8 G 13 93° 38% - - 63° 94° 56.9° - - -
6/21 1:40pm 261 9 G 13 92° 40% - - 64° 94° 56.9° - - -
6/21 1:30pm 265 9 G 14 93° 39% - - 64° 94° 56.9° - - -
6/21 1:20pm 265 8 G 14 93° 39% - - 64° 94° 56.9° - - -
6/21 1:10pm 263 8 G 12 93° 38% - - 63° 94° 56.9° - - -
6/21 1:00pm 265 7 G 11 93° 36% - - 62° 94° 56.9° - - -
6/21 12:50pm 262 6 G 10 93° 36% - - 62° 94° 56.9° - - -
6/21 12:40pm 243 7 G 12 92° 37% - - 62° 93.5° 56.9° - - -
6/21 12:30pm 256 6 G 9 92° 36% - - 61° 93.1° 56.9° - - -
6/21 12:20pm 251 6 G 10 92° 36% - - 61° 93.1° 56.9° - - -
6/21 12:10pm 246 5 G 12 91° 37% - - 62° 92.4° 56.9° - - -
6/21 12:00pm 236 7 G 12 90° 39% - - 62° 91.2° 56.9° - - -
6/21 11:50am 243 6 G 12 90° 39% - - 61° 90.7° 56.9° - - -
6/21 11:40am 235 6 G 10 89° 39% - - 60° 89.6° 56.9° - - -
6/21 11:30am 260 6 G 10 88° 38% - - 60° 89.2° 56.9° - - -
6/21 11:20am 230 6 G 10 88° 39% - - 60° 88.8° 56.9° - - -
6/21 11:10am 215 7 G 10 87° 42% - - 61° 87.7° 56.9° - - -
6/21 11:00am 213 6 G 11 85° 43% - - 61° 86.3° 56.9° - - -
6/21 10:50am 208 6 G 9 84° 45% - - 61° 84.9° 56.9° - - -
6/21 10:40am 229 4 G 8 84° 45% - - 60° 84.6° 56.9° - - -
6/21 10:30am 214 5 G 7 82° 48% - - 60° 83.6° 56.9° - - -
6/21 10:20am 204 3 G 6 81° 49% - - 61° 81.9° 56.9° - - -
6/21 10:10am 214 3 G 5 81° 52% - - 61° 81.9° 56.9° - - -
6/21 10:00am 248 2 G 6 78° 56% - - 61° 79.6° 56.9° - - -
6/21 9:50am 264 2 G 5 77° 59% - - 61° 77.6° 56.9° - - -
6/21 9:40am 240 2 G 4 75° 60% - - 60° 76.6° 56.9° - - -
6/21 9:30am 272 2 G 5 74° 65% - - 61° 75.1° 56.9° - - -
6/21 9:20am 264 2 G 4 73° 67% - - 61° 73.9° 56.9° - - -
6/21 9:10am 257 1 G 3 71° 71% - - 61° 72.2° 56.9° - - -
6/21 9:00am 271 2 G 3 69° 74% - - 61° 70.3° 56.9° - - -
6/21 8:50am 238 1 G 3 68° 77% - - 61° 69.4° 56.9° - - -
6/21 8:40am 229 2 G 4 67° 82% - - 61° 67.5° 56.9° - - -
6/21 8:30am 250 2 G 4 65° 84% - - 61° 66.7° 56.9° - - -
6/21 8:20am 230 2 G 4 64° 87% - - 60° 66.7° 56.9° - - -
6/21 8:10am 250 2 G 4 64° 89% - - 60° 66.7° 56.9° - - -
6/21 8:00am 203 1 G 3 62° 93% - - 60° 66.7° 56.9° - - -
6/21 7:50am 188 1 G 3 61° 94% - - 60° 66.7° 56.9° - - -
6/21 7:40am 203 1 G 3 61° 94% - - 59° 66.7° 56.9° - - -
6/21 7:30am 320 2 G 3 61° 94% - - 59° 66.7° 56.9° - - -
6/21 7:20am 297 0 G 2 61° 94% - - 59° 66.7° 56.9° - - -
6/21 7:10am 293 0 G 1 61° 93% - - 59° 66.7° 56.9° - - -
6/21 7:00am 24 0 G 2 61° 93% - - 59° 66.7° 56.9° - - -
6/21 6:50am 0 0 G 0 60° 93% - - 58° 66.7° 56.9° - - -
6/21 6:40am 34 0 G 1 60° 92% - - 57° 66.7° 56.9° - - -
6/21 6:30am 49 0 G 1 59° 92% - - 57° 66.7° 56.9° - - -
6/21 6:20am 0 0 G 0 59° 92% - - 56° 66.7° 56.9° - - -
6/21 6:10am 17 0 G 1 58° 92% - - 56° 66.7° 56.9° - - -
6/21 6:00am 37 1 G 1 58° 91% - - 55° 66.7° 56.9° - - -
6/21 5:50am 126 1 G 2 58° 90% - - 55° 66.7° 56.9° - - -
6/21 5:40am 180 1 G 2 58° 91% - - 55° 66.7° 56.9° - - -
6/21 5:30am 185 0 G 1 58° 92% - - 56° 66.7° 56.9° - - -
6/21 5:20am 113 1 G 2 58° 91% - - 55° 66.7° 56.9° - - -
6/21 5:10am 208 0 G 2 58° 92% - - 56° 66.7° 57.4° - - -
6/21 5:00am 0 0 G 0 58° 92% - - 56° 66.7° 57.6° - - -
6/21 4:50am 0 0 G 0 58° 92% - - 56° 66.7° 57.7° - - -
6/21 4:40am 146 1 G 2 59° 92% - - 57° 66.7° 58.3° - - -
6/21 4:30am 43 0 G 1 60° 92% - - 57° 66.7° 58.7° - - -
6/21 4:20am 58 0 G 1 59° 92% - - 57° 66.7° 58.7° - - -
6/21 4:10am 0 0 G 0 59° 91% - - 57° 66.7° 58.7° - - -
6/21 4:00am 0 0 G 0 60° 91% - - 57° 66.7° 59.1° - - -
6/21 3:50am 0 0 G 0 60° 91% - - 58° 66.7° 59.1° - - -
6/21 3:40am 0 0 G 0 60° 90% - - 57° 66.7° 59.1° - - -
6/21 3:30am 131 0 G 0 60° 90% - - 57° 66.7° 59.4° - - -
6/21 3:20am 312 0 G 1 60° 90% - - 57° 66.7° 59.7° - - -
6/21 3:10am 31 0 G 1 61° 90% - - 58° 66.7° 60.4° - - -
6/21 3:00am 0 0 G 0 61° 90% - - 58° 66.7° 60.4° - - -
6/21 2:50am 144 1 G 2 61° 90% - - 58° 66.7° 60.7° - - -
6/21 2:40am 302 0 G 1 62° 90% - - 58° 66.7° 61° - - -
6/21 2:30am 61 0 G 1 62° 89% - - 59° 66.7° 61.5° - - -
6/21 2:20am 314 0 G 2 62° 89% - - 59° 66.7° 61.9° - - -
6/21 2:10am 322 0 G 2 62° 88% - - 59° 66.7° 62° - - -
6/21 2:00am 0 0 G 0 63° 87% - - 59° 66.7° 62.1° - - -
6/21 1:50am 307 0 G 1 63° 87% - - 59° 66.7° 62.1° - - -
6/21 1:40am 0 0 G 0 63° 88% - - 59° 66.7° 62.8° - - -
6/21 1:30am 69 0 G 1 63° 86% - - 59° 66.7° 62.8° - - -
6/21 1:20am 301 0 G 1 64° 86% - - 59° 66.7° 63.2° - - -
6/21 1:10am 328 0 G 1 64° 85% - - 59° 66.7° 63.5° - - -
6/21 1:00am 206 0 G 2 64° 84% - - 59° 66.7° 63.8° - - -
6/21 12:50am 296 1 G 2 65° 84% - - 60° 66.7° 64.5° - - -
6/21 12:40am 63 0 G 1 65° 84% - - 60° 66.7° 64.7° - - -
6/21 12:30am 345 1 G 3 65° 83% - - 60° 66.7° 64.8° - - -
6/21 12:20am 38 0 G 0 66° 82% - - 60° 66.7° 65.6° - - -
6/21 12:10am 0 0 G 0 66° 81% - - 60° 66.7° 65.8° - - -
6/21 12:00am 0 0 G 0 66° 80% - - 60° 98.7° 59.3° - - -
6/20 11:50pm 325 0 G 0 67° 79% - - 60° 98.7° 59.3° - - -
6/20 11:40pm 245 0 G 0 68° 77% - - 60° 98.7° 59.3° - - -
6/20 11:30pm 243 0 G 1 68° 77% - - 61° 98.7° 59.3° - - -
6/20 11:20pm 204 0 G 2 68° 76% - - 61° 98.7° 59.3° - - -
6/20 11:10pm 33 0 G 1 69° 75% - - 61° 98.7° 59.3° - - -
6/20 11:00pm 202 1 G 2 69° 74% - - 61° 98.7° 59.3° - - -
6/20 10:50pm 221 1 G 2 70° 73% - - 61° 98.7° 59.3° - - -
6/20 10:40pm 157 1 G 2 70° 72% - - 61° 98.7° 59.3° - - -
6/20 10:30pm 118 1 G 3 70° 72% - - 61° 98.7° 59.3° - - -
6/20 10:20pm 174 1 G 4 71° 70% - - 61° 98.7° 59.3° - - -
6/20 10:10pm 211 3 G 4 72° 69% - - 61° 98.7° 59.3° - - -
6/20 10:00pm 195 3 G 7 73° 67% - - 61° 98.7° 59.3° - - -
6/20 9:50pm 199 2 G 6 73° 66% - - 61° 98.7° 59.3° - - -
6/20 9:40pm 208 4 G 6 74° 64% - - 61° 98.7° 59.3° - - -
6/20 9:30pm 198 4 G 7 75° 62% - - 61° 98.7° 59.3° - - -
6/20 9:20pm 191 4 G 6 76° 61% - - 61° 98.7° 59.3° - - -
6/20 9:10pm 181 2 G 4 76° 59% - - 61° 98.7° 59.3° - - -
6/20 9:00pm 128 1 G 3 77° 58% - - 61° 98.7° 59.3° - - -
6/20 8:50pm 207 1 G 4 78° 56% - - 61° 98.7° 59.3° - - -
6/20 8:40pm 172 2 G 4 79° 54% - - 61° 98.7° 59.3° - - -
6/20 8:30pm 183 3 G 5 80° 52% - - 61° 98.7° 59.3° - - -
6/20 8:20pm 202 1 G 3 81° 51% - - 61° 98.7° 59.3° - - -
6/20 8:10pm 102 1 G 2 82° 50% - - 61° 98.7° 59.3° - - -
6/20 8:00pm 303 0 G 1 83° 49% - - 62° 98.7° 59.3° - - -
6/20 7:50pm 254 1 G 2 84° 46% - - 61° 98.7° 59.3° - - -
6/20 7:40pm 222 1 G 2 86° 42% - - 60° 98.7° 59.3° - - -
6/20 7:30pm 314 2 G 4 87° 39% - - 59° 98.7° 59.3° - - -
6/20 7:20pm 273 2 G 4 89° 38% - - 59° 98.7° 59.3° - - -
6/20 7:10pm 267 3 G 4 89° 37% - - 59° 98.7° 59.3° - - -
6/20 7:00pm 262 3 G 5 90° 36% - - 59° 98.7° 59.3° - - -
6/20 6:50pm 259 3 G 6 90° 35% - - 59° 98.7° 59.3° - - -
6/20 6:40pm 262 4 G 7 90° 34% - - 58° 98.7° 59.3° - - -
6/20 6:30pm 256 4 G 8 90° 34% - - 59° 98.7° 59.3° - - -
6/20 6:20pm 248 4 G 8 91° 35% - - 59° 98.7° 59.3° - - -
6/20 6:10pm 238 6 G 9 91° 35% - - 59° 98.7° 59.3° - - -
6/20 6:00pm 234 6 G 9 91° 34% - - 59° 98.7° 59.3° - - -